createdAt,value
2015-06-15T13:38:47.432Z,37
2015-06-15T13:38:58.231Z,37
2015-06-15T13:39:08.684Z,36
2015-06-15T13:39:17.074Z,38
2015-06-15T13:39:27.809Z,35
2015-06-15T13:39:37.793Z,35
2015-06-15T13:39:47.965Z,34
2015-06-15T13:39:57.139Z,34
2015-06-15T13:40:06.295Z,33
2015-06-15T13:40:15.936Z,33
2015-06-15T13:40:29.280Z,33
2015-06-15T13:40:42.201Z,33
2015-06-15T13:40:52.408Z,34
2015-06-15T13:41:03.220Z,34
2015-06-15T13:41:12.876Z,34
2015-06-15T13:41:23.517Z,33
2015-06-15T13:41:33.392Z,32
2015-06-15T13:41:47.704Z,33
2015-06-15T13:42:00.660Z,32
2015-06-15T13:42:10.081Z,32
2015-06-15T13:42:18.660Z,32
2015-06-15T13:42:29.425Z,33
2015-06-15T13:42:42.144Z,33
2015-06-15T13:42:56.178Z,33
2015-06-15T13:43:07.491Z,31
2015-06-15T13:43:16.756Z,31
2015-06-15T13:43:25.866Z,31
2015-06-15T13:43:38.756Z,31
2015-06-15T13:43:50.631Z,30
2015-06-15T13:44:00.899Z,30
2015-06-15T13:44:12.243Z,30
2015-06-15T13:44:20.774Z,30
2015-06-15T13:44:29.180Z,30
2015-06-15T13:44:39.399Z,30
2015-06-15T13:44:47.915Z,30
2015-06-15T13:44:56.307Z,30
2015-06-15T13:45:06.979Z,30
2015-06-15T13:45:16.026Z,30
2015-06-15T13:45:25.088Z,30
2015-06-15T13:45:35.229Z,30
2015-06-15T13:45:43.588Z,30
2015-06-15T13:45:56.248Z,30
2015-06-15T13:46:07.310Z,30
2015-06-15T13:46:18.310Z,31
2015-06-15T13:46:27.451Z,31
2015-06-15T13:46:35.841Z,31
2015-06-15T13:46:47.779Z,31
2015-06-15T13:46:56.875Z,31
2015-06-15T13:47:08.625Z,31
2015-06-15T13:47:17.109Z,31
2015-06-15T13:47:26.328Z,31
2015-06-15T13:47:34.687Z,30
2015-06-15T13:47:43.093Z,31
2015-06-15T13:47:51.468Z,30
2015-06-15T13:48:56.785Z,29
2015-06-15T13:49:06.676Z,31
2015-06-15T13:49:15.207Z,32
2015-06-15T13:49:23.926Z,32
2015-06-15T13:49:33.019Z,33
2015-06-15T13:49:41.504Z,33
2015-06-15T13:49:50.363Z,32
2015-06-15T13:49:58.865Z,31
2015-06-15T13:50:07.240Z,31
2015-06-15T13:50:20.631Z,30
2015-06-15T13:50:30.037Z,31
2015-06-15T13:50:38.474Z,31
2015-06-15T13:50:46.881Z,31
2015-06-15T13:51:54.009Z,31
2015-06-15T13:52:04.089Z,30
2015-06-15T13:52:13.167Z,31
2015-06-15T13:52:22.979Z,31
2015-06-15T13:52:32.729Z,31
2015-06-15T13:52:43.245Z,31
2015-06-15T13:52:51.636Z,31
2015-06-15T13:53:00.404Z,31
2015-06-15T13:53:10.998Z,31
2015-06-15T13:53:19.561Z,31
2015-06-15T13:53:27.951Z,31
2015-06-15T13:53:36.826Z,31
2015-06-15T13:53:46.373Z,31
2015-06-15T13:53:56.467Z,32
2015-06-15T13:54:05.250Z,32
2015-06-15T13:54:13.656Z,31
2015-06-15T13:54:30.266Z,31
2015-06-15T13:54:38.641Z,31
2015-06-15T13:54:47.047Z,31
2015-06-15T13:54:55.484Z,32
2015-06-15T13:55:08.236Z,32
2015-06-15T13:55:17.299Z,32
2015-06-15T13:55:25.705Z,32
2015-06-15T13:55:34.190Z,32
2015-06-15T13:55:43.330Z,32
2015-06-15T13:55:51.799Z,32
2015-06-15T13:56:00.176Z,32
2015-06-15T13:56:09.473Z,32
2015-06-15T13:56:17.863Z,32
2015-06-15T13:56:26.254Z,32
2015-06-15T13:56:34.629Z,32
2015-06-15T13:56:43.770Z,31
2015-06-15T13:56:52.504Z,31
2015-06-15T13:57:03.163Z,31
2015-06-15T13:57:11.554Z,31
2015-06-15T13:57:20.663Z,31
2015-06-15T13:57:30.101Z,31
2015-06-15T13:57:38.507Z,31
2015-06-15T13:57:46.960Z,31
2015-06-15T13:57:55.398Z,30
2015-06-15T13:58:03.790Z,30
2015-06-15T13:58:12.165Z,30
2015-06-15T13:58:20.572Z,30
2015-06-15T13:58:28.993Z,30
2015-06-15T13:58:37.447Z,30
2015-06-15T13:58:45.947Z,30
2015-06-15T13:58:55.040Z,30
2015-06-15T13:59:04.965Z,30
2015-06-15T13:59:13.496Z,31
2015-06-15T13:59:22.309Z,31
2015-06-15T13:59:30.746Z,31
2015-06-15T13:59:40.293Z,31
2015-06-15T13:59:49.825Z,31
2015-06-15T13:59:58.371Z,31
2015-06-15T14:00:11.858Z,31
2015-06-15T14:00:20.733Z,30
2015-06-15T14:00:29.639Z,30
2015-06-15T14:00:38.733Z,29
2015-06-15T14:00:47.123Z,29
2015-06-15T14:00:58.592Z,29
2015-06-15T14:01:08.907Z,29
2015-06-15T14:01:18.000Z,30
2015-06-15T14:01:27.063Z,30
2015-06-15T14:01:40.063Z,30
2015-06-15T14:01:48.594Z,30
2015-06-15T14:01:58.594Z,30
2015-06-15T14:02:07.706Z,30
2015-06-15T14:02:16.143Z,30
2015-06-15T14:02:25.284Z,30
2015-06-15T14:02:33.674Z,30
2015-06-15T14:02:42.471Z,30
2015-06-15T14:02:50.862Z,30
2015-06-15T14:02:59.940Z,30
2015-06-15T14:03:10.099Z,30
2015-06-15T14:03:18.459Z,30
2015-06-15T14:03:27.552Z,30
2015-06-15T14:03:36.396Z,30
2015-06-15T14:03:45.490Z,30
2015-06-15T14:03:54.365Z,30
2015-06-15T14:04:06.992Z,30
2015-06-15T14:04:15.382Z,30
2015-06-15T14:04:24.882Z,30
2015-06-15T14:04:33.836Z,30
2015-06-15T14:04:42.211Z,30
2015-06-15T14:04:50.945Z,30
2015-06-15T14:04:59.867Z,31
2015-06-15T14:05:11.276Z,31
2015-06-15T14:05:20.167Z,32
2015-06-15T14:05:29.026Z,31
2015-06-15T14:05:37.432Z,31
2015-06-15T14:05:46.292Z,31
2015-06-15T14:05:56.995Z,31
2015-06-15T14:06:07.684Z,31
2015-06-15T14:06:17.653Z,31
2015-06-15T14:06:27.997Z,30
2015-06-15T14:06:37.106Z,30
2015-06-15T14:06:46.872Z,30
2015-06-15T14:06:55.762Z,30
2015-06-15T14:07:59.406Z,30
2015-06-15T14:08:07.876Z,30
2015-06-15T14:08:16.251Z,30
2015-06-15T14:08:24.626Z,29
2015-06-15T14:08:33.016Z,29
2015-06-15T14:08:41.532Z,29
2015-06-15T14:08:51.016Z,30
2015-06-15T14:08:59.391Z,30
2015-06-15T14:09:08.347Z,30
2015-06-15T14:09:17.550Z,30
2015-06-15T14:09:25.956Z,31
2015-06-15T14:09:34.472Z,30
2015-06-15T14:09:45.862Z,30
2015-06-15T14:09:54.940Z,31
2015-06-15T14:10:03.378Z,31
2015-06-15T14:10:11.756Z,31
2015-06-15T14:10:20.131Z,32
2015-06-15T14:10:29.240Z,32
2015-06-15T14:10:37.646Z,31
2015-06-15T14:10:46.490Z,30
2015-06-15T14:10:54.943Z,30
2015-06-15T14:11:06.850Z,30
2015-06-15T14:11:15.242Z,30
2015-06-15T14:11:24.336Z,30
2015-06-15T14:11:32.820Z,30
2015-06-15T14:11:42.055Z,29
2015-06-15T14:11:50.977Z,29
2015-06-15T14:11:59.836Z,28
2015-06-15T14:13:08.839Z,28
2015-06-15T14:13:18.045Z,29
2015-06-15T14:13:26.686Z,30
2015-06-15T14:13:35.092Z,30
2015-06-15T14:13:43.545Z,30
2015-06-15T14:13:51.983Z,30
2015-06-15T14:14:00.936Z,30
2015-06-15T14:14:09.389Z,30
2015-06-15T14:14:17.766Z,30
2015-06-15T14:15:21.815Z,30
2015-06-15T14:15:35.799Z,30
2015-06-15T14:15:44.283Z,31
2015-06-15T14:15:52.643Z,31
2015-06-15T14:16:01.018Z,31
2015-06-15T14:16:11.567Z,31
2015-06-15T14:16:20.801Z,30
2015-06-15T14:16:29.895Z,30
2015-06-15T14:16:40.379Z,30
2015-06-15T14:16:48.770Z,30
2015-06-15T14:17:51.819Z,30
2015-06-15T14:18:00.881Z,30
2015-06-15T14:18:10.975Z,29
2015-06-15T14:18:21.134Z,30
2015-06-15T14:18:29.572Z,30
2015-06-15T14:18:39.525Z,30
2015-06-15T14:18:48.775Z,30
2015-06-15T14:18:58.103Z,31
2015-06-15T14:19:08.806Z,30
2015-06-15T14:19:17.605Z,30
2015-06-15T14:19:25.964Z,30
2015-06-15T14:19:35.636Z,29
2015-06-15T14:20:43.592Z,30
2015-06-15T14:20:52.733Z,29
2015-06-15T14:21:01.405Z,29
2015-06-15T14:21:10.467Z,30
2015-06-15T14:21:18.907Z,30
2015-06-15T14:21:27.344Z,30
2015-06-15T14:21:37.610Z,30
2015-06-15T14:21:45.969Z,30
2015-06-15T14:21:54.329Z,30
2015-06-15T14:22:03.657Z,30
2015-06-15T14:22:13.047Z,30
2015-06-15T14:22:21.940Z,30
2015-06-15T14:22:30.378Z,30
2015-06-15T14:22:38.784Z,30
2015-06-15T14:22:47.159Z,29
2015-06-15T14:22:56.581Z,30
2015-06-15T14:23:06.831Z,30
2015-06-15T14:23:16.440Z,30
2015-06-15T14:23:25.224Z,30
2015-06-15T14:23:33.615Z,30
2015-06-15T14:23:42.412Z,30
2015-06-15T14:23:50.896Z,30
2015-06-15T14:24:00.037Z,30
2015-06-15T14:24:08.396Z,30
2015-06-15T14:25:13.647Z,30
2015-06-15T14:26:18.681Z,30
2015-06-15T14:26:27.650Z,31
2015-06-15T14:26:36.497Z,31
2015-06-15T14:26:44.872Z,30
2015-06-15T14:26:58.138Z,31
2015-06-15T14:27:08.263Z,31
2015-06-15T14:27:17.153Z,31
2015-06-15T14:27:25.513Z,31
2015-06-15T14:27:33.890Z,31
2015-06-15T14:27:42.249Z,31
2015-06-15T14:27:50.608Z,31
2015-06-15T14:27:59.077Z,31
2015-06-15T14:28:07.436Z,31
2015-06-15T14:28:15.811Z,31
2015-06-15T14:28:25.421Z,30
2015-06-15T14:28:33.876Z,30
2015-06-15T14:28:43.376Z,30
2015-06-15T14:28:51.767Z,30
2015-06-15T14:29:00.954Z,30
2015-06-15T14:29:14.282Z,30
2015-06-15T14:29:23.532Z,30
2015-06-15T14:29:32.363Z,29
2015-06-15T14:29:40.895Z,29
2015-06-15T14:29:49.395Z,29
2015-06-15T14:29:59.457Z,30
2015-06-15T14:30:08.691Z,30
2015-06-15T14:30:17.160Z,30
2015-06-15T14:30:25.582Z,30
2015-06-15T14:30:34.553Z,30
2015-06-15T14:30:43.365Z,29
2015-06-15T14:30:51.897Z,29
2015-06-15T14:31:00.709Z,29
2015-06-15T14:31:10.725Z,29
2015-06-15T14:31:19.178Z,29
2015-06-15T14:31:28.100Z,29
2015-06-15T14:31:36.602Z,29
2015-06-15T14:32:37.839Z,30
2015-06-15T14:32:47.964Z,29
2015-06-15T14:33:00.058Z,29
2015-06-15T14:33:11.464Z,28
2015-06-15T14:33:20.105Z,29
2015-06-15T14:33:29.573Z,28
2015-06-15T14:33:37.936Z,29
2015-06-15T14:33:47.030Z,29
2015-06-15T14:33:55.420Z,29
2015-06-15T14:34:07.030Z,29
2015-06-15T14:34:15.920Z,29
2015-06-15T14:34:25.123Z,29
2015-06-15T14:34:34.109Z,30
2015-06-15T14:34:43.374Z,30
2015-06-15T14:34:51.749Z,30
2015-06-15T14:35:00.281Z,30
2015-06-15T14:35:15.249Z,30
2015-06-15T14:35:23.624Z,31
2015-06-15T14:35:32.033Z,31
2015-06-15T14:35:40.470Z,30
2015-06-15T14:35:50.017Z,30
2015-06-15T14:35:58.814Z,30
2015-06-15T14:36:07.236Z,30
2015-06-15T14:36:16.298Z,30
2015-06-15T14:36:24.673Z,30
2015-06-15T14:36:33.129Z,30
2015-06-15T14:36:42.020Z,29
2015-06-15T14:36:50.442Z,29
2015-06-15T14:36:58.926Z,29
2015-06-15T14:37:08.348Z,29
2015-06-15T14:37:16.770Z,29
2015-06-15T14:37:25.536Z,28
2015-06-15T14:37:36.553Z,28
2015-06-15T14:37:47.897Z,28
2015-06-15T14:37:56.288Z,28
2015-06-15T14:38:07.038Z,28
2015-06-15T14:38:16.850Z,28
2015-06-15T14:38:29.241Z,28
2015-06-15T14:38:42.212Z,28
2015-06-15T14:38:51.416Z,28
2015-06-15T14:39:00.166Z,29
2015-06-15T14:39:11.025Z,29
2015-06-15T14:39:20.306Z,29
2015-06-15T14:39:31.462Z,29
2015-06-15T14:39:40.777Z,29
2015-06-15T14:39:49.183Z,30
2015-06-15T14:39:57.527Z,30
2015-06-15T14:40:06.402Z,31
2015-06-15T14:40:14.777Z,31
2015-06-15T14:40:23.230Z,31
2015-06-15T14:40:35.795Z,31
2015-06-15T14:40:46.091Z,32
2015-06-15T14:40:55.263Z,32
2015-06-15T14:41:06.857Z,32
2015-06-15T14:41:16.779Z,31
2015-06-15T14:41:25.123Z,31
2015-06-15T14:41:33.907Z,31
2015-06-15T14:41:42.329Z,31
2015-06-15T14:41:51.423Z,31
2015-06-15T14:42:00.969Z,31
2015-06-15T14:42:10.110Z,31
2015-06-15T14:42:18.563Z,31
2015-06-15T14:42:26.923Z,31
2015-06-15T14:42:39.096Z,30
2015-06-15T14:42:47.456Z,29
2015-06-15T14:42:57.675Z,29
2015-06-15T14:43:07.612Z,29
2015-06-15T14:43:15.987Z,29
2015-06-15T14:43:25.143Z,30
2015-06-15T14:43:33.518Z,30
2015-06-15T14:43:43.098Z,30
2015-06-15T14:43:51.473Z,30
2015-06-15T14:44:00.395Z,30
2015-06-15T14:44:09.458Z,30
2015-06-15T14:44:17.880Z,30
2015-06-15T14:44:26.895Z,30
2015-06-15T14:44:35.273Z,30
2015-06-15T14:44:43.617Z,30
2015-06-15T14:44:52.476Z,30
2015-06-15T14:45:00.836Z,30
2015-06-15T14:45:10.289Z,30
2015-06-15T14:45:19.242Z,30
2015-06-15T14:45:27.711Z,30
2015-06-15T14:45:36.072Z,30
2015-06-15T14:45:44.478Z,31
2015-06-15T14:45:52.838Z,30
2015-06-15T14:46:01.182Z,30
2015-06-15T14:46:10.119Z,30
2015-06-15T14:46:18.525Z,30
2015-06-15T14:46:28.025Z,30
2015-06-15T14:46:36.903Z,30
2015-06-15T14:46:45.278Z,30
2015-06-15T14:46:54.106Z,31
2015-06-15T14:47:03.435Z,31
2015-06-15T14:47:13.060Z,31
2015-06-15T14:47:21.919Z,31
2015-06-15T14:47:32.497Z,31
2015-06-15T14:47:41.217Z,30
2015-06-15T14:47:51.779Z,30
2015-06-15T14:48:00.295Z,30
2015-06-15T14:48:09.561Z,30
2015-06-15T14:48:18.748Z,30
2015-06-15T14:49:21.829Z,30
2015-06-15T14:49:31.423Z,30
2015-06-15T14:49:40.220Z,30
2015-06-15T14:49:49.254Z,30
2015-06-15T14:49:57.613Z,30
2015-06-15T14:50:05.973Z,30
2015-06-15T14:50:15.395Z,29
2015-06-15T14:50:23.754Z,29
2015-06-15T14:50:32.582Z,29
2015-06-15T14:50:42.051Z,30
2015-06-15T14:50:50.412Z,30
2015-06-15T14:50:59.334Z,30
2015-06-15T14:51:08.428Z,30
2015-06-15T14:51:18.615Z,29
2015-06-15T14:51:29.162Z,30
2015-06-15T14:51:39.100Z,30
2015-06-15T14:51:47.446Z,30
2015-06-15T14:51:55.883Z,29
2015-06-15T14:52:04.946Z,29
2015-06-15T14:52:13.617Z,30
2015-06-15T14:53:19.403Z,30
2015-06-15T14:53:31.340Z,30
2015-06-15T14:53:40.121Z,30
2015-06-15T14:53:48.481Z,29
2015-06-15T14:53:56.965Z,29
2015-06-15T14:54:05.340Z,29
2015-06-15T14:54:14.436Z,29
2015-06-15T14:54:22.795Z,29
2015-06-15T14:54:33.342Z,29
2015-06-15T14:54:43.186Z,29
2015-06-15T14:54:52.077Z,29
2015-06-15T14:55:00.436Z,29
2015-06-15T14:55:11.077Z,29
2015-06-15T14:55:19.438Z,29
2015-06-15T14:55:28.235Z,29
2015-06-15T14:55:38.422Z,29
2015-06-15T14:55:47.469Z,29
2015-06-15T14:55:55.922Z,29
2015-06-15T14:56:04.969Z,29
2015-06-15T14:56:14.097Z,29
2015-06-15T14:56:22.488Z,29
2015-06-15T14:56:30.847Z,29
2015-06-15T14:56:39.191Z,28
2015-06-15T14:56:47.550Z,28
2015-06-15T14:56:55.910Z,28
2015-06-15T14:57:06.050Z,28
2015-06-15T14:57:15.177Z,28
2015-06-15T14:57:24.412Z,28
2015-06-15T14:57:33.615Z,29
2015-06-15T14:58:39.273Z,29
2015-06-15T14:58:49.539Z,29
2015-06-15T14:58:59.914Z,29
2015-06-15T14:59:10.132Z,29
2015-06-15T14:59:18.976Z,30
2015-06-15T14:59:35.823Z,30
2015-06-15T14:59:44.182Z,30
2015-06-15T14:59:52.557Z,30
2015-06-15T15:00:01.323Z,30
2015-06-15T15:00:15.276Z,30
2015-06-15T15:00:24.307Z,30
2015-06-15T15:00:33.073Z,30
2015-06-15T15:00:41.997Z,29
2015-06-15T15:00:50.356Z,29
2015-06-15T15:00:59.122Z,29
2015-06-15T15:01:08.497Z,29
2015-06-15T15:01:16.856Z,29
2015-06-15T15:01:25.231Z,29
2015-06-15T15:01:34.137Z,28
2015-06-15T15:01:43.187Z,29
2015-06-15T15:01:51.578Z,29
2015-06-15T15:02:01.500Z,29
2015-06-15T15:02:09.859Z,29
2015-06-15T15:02:18.765Z,29
2015-06-15T15:02:27.125Z,29
2015-06-15T15:02:36.924Z,29
2015-06-15T15:02:45.642Z,29
2015-06-15T15:02:54.017Z,29
2015-06-15T15:03:03.502Z,29
2015-06-15T15:03:11.924Z,30
2015-06-15T15:03:20.283Z,30
2015-06-15T15:03:28.971Z,29
2015-06-15T15:03:38.036Z,29
2015-06-15T15:03:46.427Z,29
2015-06-15T15:03:55.474Z,29
2015-06-15T15:04:03.833Z,30
2015-06-15T15:04:12.177Z,29
2015-06-15T15:04:22.395Z,29
2015-06-15T15:04:33.005Z,29
2015-06-15T15:04:41.397Z,29
2015-06-15T15:04:51.335Z,29
2015-06-15T15:05:03.304Z,30
2015-06-15T15:05:12.647Z,30
2015-06-15T15:06:20.291Z,29
2015-06-15T15:06:31.682Z,29
2015-06-15T15:06:40.229Z,29
2015-06-15T15:06:48.588Z,29
2015-06-15T15:06:57.291Z,29
2015-06-15T15:07:07.260Z,30
2015-06-15T15:07:15.685Z,30
2015-06-15T15:07:24.028Z,30
2015-06-15T15:07:32.388Z,30
2015-06-15T15:07:40.732Z,29
2015-06-15T15:07:49.200Z,29
2015-06-15T15:07:57.560Z,29
2015-06-15T15:08:05.935Z,29
2015-06-15T15:08:14.280Z,29
2015-06-15T15:08:22.640Z,29
2015-06-15T15:08:30.999Z,29
2015-06-15T15:08:39.359Z,29
2015-06-15T15:08:48.562Z,29
2015-06-15T15:08:56.952Z,29
2015-06-15T15:09:07.562Z,29
2015-06-15T15:09:15.954Z,29
2015-06-15T15:09:24.314Z,28
2015-06-15T15:09:32.704Z,29
2015-06-15T15:09:42.064Z,29
2015-06-15T15:09:51.657Z,29
2015-06-15T15:10:02.142Z,28
2015-06-15T15:10:11.079Z,28
2015-06-15T15:10:19.456Z,28
2015-06-15T15:10:28.347Z,28
2015-06-15T15:10:37.956Z,28
2015-06-15T15:10:46.456Z,28
2015-06-15T15:10:55.550Z,29
2015-06-15T15:11:05.488Z,28
2015-06-15T15:11:13.897Z,28
2015-06-15T15:11:22.959Z,28
2015-06-15T15:11:31.944Z,28
2015-06-15T15:11:42.006Z,28
2015-06-15T15:11:51.834Z,28
2015-06-15T15:12:00.194Z,28
2015-06-15T15:12:11.256Z,28
2015-06-15T15:12:21.774Z,28
2015-06-15T15:12:34.399Z,28
2015-06-15T15:12:42.789Z,28
2015-06-15T15:12:51.164Z,28
2015-06-15T15:12:59.539Z,28
2015-06-15T15:13:09.680Z,28
2015-06-15T15:13:19.588Z,28
2015-06-15T15:13:29.432Z,28
2015-06-15T15:13:39.057Z,28
2015-06-15T15:13:48.541Z,28
2015-06-15T15:13:57.276Z,28
2015-06-15T15:14:06.541Z,28
2015-06-15T15:14:16.451Z,28
2015-06-15T15:14:29.576Z,27
2015-06-15T15:14:38.873Z,27
2015-06-15T15:14:49.529Z,27
2015-06-15T15:14:59.373Z,28
2015-06-15T15:15:08.591Z,28
2015-06-15T15:15:18.032Z,28
2015-06-15T15:15:27.907Z,29
2015-06-15T15:15:43.532Z,29
2015-06-15T15:15:52.532Z,29
2015-06-15T15:16:02.563Z,29
2015-06-15T15:16:14.563Z,29
2015-06-15T15:16:25.158Z,29
2015-06-15T15:16:41.689Z,29
2015-06-15T15:16:51.017Z,30
2015-06-15T15:17:00.205Z,30
2015-06-15T15:17:10.408Z,30
2015-06-15T15:17:20.145Z,30
2015-06-15T15:17:31.645Z,31
2015-06-15T15:17:42.083Z,31
2015-06-15T15:17:51.676Z,31
2015-06-15T15:18:00.630Z,31
2015-06-15T15:18:10.911Z,30
2015-06-15T15:18:23.725Z,30
2015-06-15T15:18:32.757Z,30
2015-06-15T15:18:45.991Z,30
